Terminal Aerodrome Forecast
Issued by NWS Louisville, KY

Home | Current Version | Previous Version | Text Only | Print | Product List | Glossary On
Versions: 1 2 3 4 5 6 7 8 9 10 11 12 13 14 15 16
000
FTUS43 KLMK 210100 AAA
TAFBWG
TAF AMD
KBWG 210117Z 2101/2124 35005KT P6SM -SHRA BKN050
      TEMPO 2102/2105 4SM -SHRA BR BKN008
     FM210500 34005KT 4SM BR BKN008
     FM211500 32007KT P6SM OVC015
     FM211900 33008KT P6SM BKN025=

USA.gov is the U.S. government's official web portal to all federal, state and local government web resources and services.